sensor_id;sensor_type;location;lat;lon;timestamp;temperature;humidity
15450;DHT22;7826;49.784;9.934;2023-02-28T00:00:36;-1.30;1.00
15450;DHT22;7826;49.784;9.934;2023-02-28T00:03:03;-1.30;1.00
15450;DHT22;7826;49.784;9.934;2023-02-28T00:05:29;-1.40;1.00
15450;DHT22;7826;49.784;9.934;2023-02-28T00:07:56;-1.40;1.00
15450;DHT22;7826;49.784;9.934;2023-02-28T00:10:28;-1.40;1.00
15450;DHT22;7826;49.784;9.934;2023-02-28T00:12:56;-1.40;1.00
15450;DHT22;7826;49.784;9.934;2023-02-28T00:15:24;-1.40;1.00
15450;DHT22;7826;49.784;9.934;2023-02-28T00:17:51;-1.40;1.00
15450;DHT22;7826;49.784;9.934;2023-02-28T00:20:18;-1.40;1.00
15450;DHT22;7826;49.784;9.934;2023-02-28T00:22:47;-1.40;1.00
15450;DHT22;7826;49.784;9.934;2023-02-28T00:25:17;-1.50;1.00
15450;DHT22;7826;49.784;9.934;2023-02-28T00:27:44;-1.50;1.00
15450;DHT22;7826;49.784;9.934;2023-02-28T00:30:16;-1.60;1.00
15450;DHT22;7826;49.784;9.934;2023-02-28T00:32:44;-1.60;1.00
15450;DHT22;7826;49.784;9.934;2023-02-28T00:35:11;-1.60;1.00
15450;DHT22;7826;49.784;9.934;2023-02-28T00:37:38;-1.60;1.00
15450;DHT22;7826;49.784;9.934;2023-02-28T00:40:06;-1.60;1.00
15450;DHT22;7826;49.784;9.934;2023-02-28T00:42:34;-1.60;1.00
15450;DHT22;7826;49.784;9.934;2023-02-28T00:45:00;-1.70;1.00
15450;DHT22;7826;49.784;9.934;2023-02-28T00:47:27;-1.60;1.00
15450;DHT22;7826;49.784;9.934;2023-02-28T00:49:53;-1.60;1.00
15450;DHT22;7826;49.784;9.934;2023-02-28T00:52:19;-1.70;1.00
15450;DHT22;7826;49.784;9.934;2023-02-28T00:54:45;-1.70;1.00
15450;DHT22;7826;49.784;9.934;2023-02-28T00:57:12;-1.60;1.00
15450;DHT22;7826;49.784;9.934;2023-02-28T00:59:38;-1.80;1.00
15450;DHT22;7826;49.784;9.934;2023-02-28T01:02:04;-1.80;1.00
15450;DHT22;7826;49.784;9.934;2023-02-28T01:04:31;-1.80;1.00
15450;DHT22;7826;49.784;9.934;2023-02-28T01:06:57;-1.80;1.00
15450;DHT22;7826;49.784;9.934;2023-02-28T01:09:23;-1.80;1.00
15450;DHT22;7826;49.784;9.934;2023-02-28T01:11:49;-1.80;1.00
15450;DHT22;7826;49.784;9.934;2023-02-28T01:14:17;-1.80;1.00
15450;DHT22;7826;49.784;9.934;2023-02-28T01:16:43;-1.80;1.00
15450;DHT22;7826;49.784;9.934;2023-02-28T01:19:10;-1.80;1.00
15450;DHT22;7826;49.784;9.934;2023-02-28T01:21:36;-1.90;1.00
15450;DHT22;7826;49.784;9.934;2023-02-28T01:24:04;-1.90;1.00
15450;DHT22;7826;49.784;9.934;2023-02-28T01:26:30;-1.90;1.00
15450;DHT22;7826;49.784;9.934;2023-02-28T01:28:57;-2.00;1.00
15450;DHT22;7826;49.784;9.934;2023-02-28T01:31:24;-2.00;1.00
15450;DHT22;7826;49.784;9.934;2023-02-28T01:33:51;-2.00;1.00
15450;DHT22;7826;49.784;9.934;2023-02-28T01:36:20;-2.00;1.00
15450;DHT22;7826;49.784;9.934;2023-02-28T01:38:48;-2.00;1.00
15450;DHT22;7826;49.784;9.934;2023-02-28T01:41:20;-2.00;1.00
15450;DHT22;7826;49.784;9.934;2023-02-28T01:46:14;-2.00;1.00
15450;DHT22;7826;49.784;9.934;2023-02-28T01:48:51;-2.10;1.00
15450;DHT22;7826;49.784;9.934;2023-02-28T01:51:24;-2.10;1.00
15450;DHT22;7826;49.784;9.934;2023-02-28T01:54:02;-2.10;1.00
15450;DHT22;7826;49.784;9.934;2023-02-28T01:56:32;-2.10;1.00
15450;DHT22;7826;49.784;9.934;2023-02-28T01:59:00;-2.10;1.00
15450;DHT22;7826;49.784;9.934;2023-02-28T02:01:28;-2.10;1.00
15450;DHT22;7826;49.784;9.934;2023-02-28T02:03:57;-2.10;1.00
15450;DHT22;7826;49.784;9.934;2023-02-28T02:06:27;-2.10;1.00
15450;DHT22;7826;49.784;9.934;2023-02-28T02:08:54;-2.10;1.00
15450;DHT22;7826;49.784;9.934;2023-02-28T02:11:23;-2.10;1.00
15450;DHT22;7826;49.784;9.934;2023-02-28T02:36:18;-2.10;1.00
15450;DHT22;7826;49.784;9.934;2023-02-28T02:38:52;-2.20;1.00
15450;DHT22;7826;49.784;9.934;2023-02-28T02:41:22;-2.10;1.00
15450;DHT22;7826;49.784;9.934;2023-02-28T02:46:46;-2.20;1.00
15450;DHT22;7826;49.784;9.934;2023-02-28T02:49:17;-2.20;1.00
15450;DHT22;7826;49.784;9.934;2023-02-28T02:51:47;-2.20;1.00
15450;DHT22;7826;49.784;9.934;2023-02-28T02:54:28;-2.20;1.00
15450;DHT22;7826;49.784;9.934;2023-02-28T02:56:58;-2.30;1.00
15450;DHT22;7826;49.784;9.934;2023-02-28T02:59:26;-2.30;1.00
15450;DHT22;7826;49.784;9.934;2023-02-28T03:02:00;-2.30;1.00
15450;DHT22;7826;49.784;9.934;2023-02-28T03:04:31;-2.30;1.00
15450;DHT22;7826;49.784;9.934;2023-02-28T03:06:58;-2.30;1.00
15450;DHT22;7826;49.784;9.934;2023-02-28T03:09:25;-2.40;1.00
15450;DHT22;7826;49.784;9.934;2023-02-28T03:11:54;-2.40;1.00
15450;DHT22;7826;49.784;9.934;2023-02-28T03:14:25;-2.40;1.00
15450;DHT22;7826;49.784;9.934;2023-02-28T03:19:31;-2.40;1.00
15450;DHT22;7826;49.784;9.934;2023-02-28T03:25:13;-2.40;1.00
15450;DHT22;7826;49.784;9.934;2023-02-28T03:30:41;-2.50;1.00
15450;DHT22;7826;49.784;9.934;2023-02-28T03:33:18;-2.50;1.00
15450;DHT22;7826;49.784;9.934;2023-02-28T03:35:54;-2.50;1.00
15450;DHT22;7826;49.784;9.934;2023-02-28T03:38:35;-2.50;1.00
15450;DHT22;7826;49.784;9.934;2023-02-28T03:41:12;-2.50;1.00
15450;DHT22;7826;49.784;9.934;2023-02-28T03:43:43;-2.50;1.00
15450;DHT22;7826;49.784;9.934;2023-02-28T03:46:12;-2.60;1.00
15450;DHT22;7826;49.784;9.934;2023-02-28T03:48:49;-2.60;1.00
15450;DHT22;7826;49.784;9.934;2023-02-28T03:51:19;-2.10;1.00
15450;DHT22;7826;49.784;9.934;2023-02-28T03:53:53;-2.60;1.00
15450;DHT22;7826;49.784;9.934;2023-02-28T03:56:27;-2.60;1.00
15450;DHT22;7826;49.784;9.934;2023-02-28T03:59:00;-2.60;1.00
15450;DHT22;7826;49.784;9.934;2023-02-28T04:01:44;-2.60;1.00
15450;DHT22;7826;49.784;9.934;2023-02-28T04:04:13;-2.60;1.00
15450;DHT22;7826;49.784;9.934;2023-02-28T04:06:40;-2.60;1.00
15450;DHT22;7826;49.784;9.934;2023-02-28T04:09:09;-2.60;1.00
15450;DHT22;7826;49.784;9.934;2023-02-28T04:11:38;-2.60;1.00
15450;DHT22;7826;49.784;9.934;2023-02-28T04:14:05;-2.60;1.00
15450;DHT22;7826;49.784;9.934;2023-02-28T04:16:34;-2.60;1.00
15450;DHT22;7826;49.784;9.934;2023-02-28T04:19:01;-2.60;1.00
15450;DHT22;7826;49.784;9.934;2023-02-28T04:21:33;-2.60;1.00
15450;DHT22;7826;49.784;9.934;2023-02-28T04:24:00;-2.60;1.00
15450;DHT22;7826;49.784;9.934;2023-02-28T04:26:35;-2.60;1.00
15450;DHT22;7826;49.784;9.934;2023-02-28T04:29:04;-2.60;1.00
15450;DHT22;7826;49.784;9.934;2023-02-28T04:31:31;-2.60;1.00
15450;DHT22;7826;49.784;9.934;2023-02-28T04:33:57;-2.60;1.00
15450;DHT22;7826;49.784;9.934;2023-02-28T04:36:24;-2.60;1.00
15450;DHT22;7826;49.784;9.934;2023-02-28T04:38:50;-2.70;1.00
15450;DHT22;7826;49.784;9.934;2023-02-28T04:41:17;-2.70;1.00
15450;DHT22;7826;49.784;9.934;2023-02-28T04:43:43;-2.70;1.00
15450;DHT22;7826;49.784;9.934;2023-02-28T04:46:10;-2.70;1.00
15450;DHT22;7826;49.784;9.934;2023-02-28T04:48:38;-2.70;1.00
15450;DHT22;7826;49.784;9.934;2023-02-28T04:51:08;-2.70;1.00
15450;DHT22;7826;49.784;9.934;2023-02-28T04:53:53;-2.70;1.00
15450;DHT22;7826;49.784;9.934;2023-02-28T04:56:38;-2.60;1.00
15450;DHT22;7826;49.784;9.934;2023-02-28T04:59:04;-2.80;1.00
15450;DHT22;7826;49.784;9.934;2023-02-28T05:01:34;-2.80;1.00
15450;DHT22;7826;49.784;9.934;2023-02-28T05:04:02;-2.80;1.00
15450;DHT22;7826;49.784;9.934;2023-02-28T05:06:33;-2.80;1.00
15450;DHT22;7826;49.784;9.934;2023-02-28T05:09:00;-2.80;1.00
15450;DHT22;7826;49.784;9.934;2023-02-28T05:11:32;-2.80;1.00
15450;DHT22;7826;49.784;9.934;2023-02-28T05:14:04;-2.80;1.00
15450;DHT22;7826;49.784;9.934;2023-02-28T05:16:31;-2.80;1.00
15450;DHT22;7826;49.784;9.934;2023-02-28T05:18:58;-2.70;1.00
15450;DHT22;7826;49.784;9.934;2023-02-28T05:21:51;-2.70;1.00
15450;DHT22;7826;49.784;9.934;2023-02-28T05:24:18;-2.70;1.00
15450;DHT22;7826;49.784;9.934;2023-02-28T05:26:51;-2.80;1.00
15450;DHT22;7826;49.784;9.934;2023-02-28T05:29:18;-2.80;1.00
15450;DHT22;7826;49.784;9.934;2023-02-28T05:31:45;-2.80;1.00
15450;DHT22;7826;49.784;9.934;2023-02-28T05:34:12;-2.80;1.00
15450;DHT22;7826;49.784;9.934;2023-02-28T05:36:39;-2.80;1.00
15450;DHT22;7826;49.784;9.934;2023-02-28T05:39:06;-2.70;1.00
15450;DHT22;7826;49.784;9.934;2023-02-28T05:41:34;-2.80;1.00
15450;DHT22;7826;49.784;9.934;2023-02-28T05:44:00;-2.70;1.00
15450;DHT22;7826;49.784;9.934;2023-02-28T05:46:27;-2.70;1.00
15450;DHT22;7826;49.784;9.934;2023-02-28T05:48:53;-2.70;1.00
15450;DHT22;7826;49.784;9.934;2023-02-28T05:51:21;-2.70;1.00
15450;DHT22;7826;49.784;9.934;2023-02-28T05:53:48;-2.70;1.00
15450;DHT22;7826;49.784;9.934;2023-02-28T05:56:15;-2.70;1.00
15450;DHT22;7826;49.784;9.934;2023-02-28T05:58:41;-2.70;1.00
15450;DHT22;7826;49.784;9.934;2023-02-28T06:01:41;-2.70;1.00
15450;DHT22;7826;49.784;9.934;2023-02-28T06:04:09;-2.70;1.00
15450;DHT22;7826;49.784;9.934;2023-02-28T06:06:36;-2.70;1.00
15450;DHT22;7826;49.784;9.934;2023-02-28T06:09:04;-2.70;1.00
15450;DHT22;7826;49.784;9.934;2023-02-28T06:11:31;-2.60;1.00
15450;DHT22;7826;49.784;9.934;2023-02-28T06:13:59;-2.60;1.00
15450;DHT22;7826;49.784;9.934;2023-02-28T06:16:30;-2.60;1.00
15450;DHT22;7826;49.784;9.934;2023-02-28T06:18:57;-1.90;1.00
15450;DHT22;7826;49.784;9.934;2023-02-28T06:21:24;-2.60;1.00
15450;DHT22;7826;49.784;9.934;2023-02-28T06:23:50;-2.50;1.00
15450;DHT22;7826;49.784;9.934;2023-02-28T06:26:17;-2.50;1.00
15450;DHT22;7826;49.784;9.934;2023-02-28T06:28:43;-2.50;1.00
15450;DHT22;7826;49.784;9.934;2023-02-28T06:31:12;-2.50;1.00
15450;DHT22;7826;49.784;9.934;2023-02-28T06:33:43;-2.40;1.00
15450;DHT22;7826;49.784;9.934;2023-02-28T06:36:10;-2.30;1.00
15450;DHT22;7826;49.784;9.934;2023-02-28T06:38:37;-1.90;1.00
15450;DHT22;7826;49.784;9.934;2023-02-28T06:41:05;-2.10;1.00
15450;DHT22;7826;49.784;9.934;2023-02-28T06:43:35;-2.10;1.00
15450;DHT22;7826;49.784;9.934;2023-02-28T06:46:04;-2.10;1.00
15450;DHT22;7826;49.784;9.934;2023-02-28T06:48:31;-2.00;1.00
15450;DHT22;7826;49.784;9.934;2023-02-28T06:51:05;-2.00;1.00
15450;DHT22;7826;49.784;9.934;2023-02-28T06:53:33;-2.00;1.00
15450;DHT22;7826;49.784;9.934;2023-02-28T06:55:59;-1.90;1.00
15450;DHT22;7826;49.784;9.934;2023-02-28T06:58:25;-1.90;1.00
15450;DHT22;7826;49.784;9.934;2023-02-28T07:00:52;-1.80;1.00
15450;DHT22;7826;49.784;9.934;2023-02-28T07:03:19;-1.40;1.00
15450;DHT22;7826;49.784;9.934;2023-02-28T07:05:45;-1.60;1.00
15450;DHT22;7826;49.784;9.934;2023-02-28T07:08:12;-1.60;1.00
15450;DHT22;7826;49.784;9.934;2023-02-28T07:10:39;-1.50;1.00
15450;DHT22;7826;49.784;9.934;2023-02-28T07:13:07;-1.50;1.00
15450;DHT22;7826;49.784;9.934;2023-02-28T07:15:36;-1.40;1.00
15450;DHT22;7826;49.784;9.934;2023-02-28T07:18:02;-1.30;1.00
15450;DHT22;7826;49.784;9.934;2023-02-28T07:20:30;-1.30;1.00
15450;DHT22;7826;49.784;9.934;2023-02-28T07:22:56;-1.10;1.00
15450;DHT22;7826;49.784;9.934;2023-02-28T07:25:25;-1.10;1.00
15450;DHT22;7826;49.784;9.934;2023-02-28T07:27:53;-0.90;1.00
15450;DHT22;7826;49.784;9.934;2023-02-28T07:30:21;-0.60;1.00
15450;DHT22;7826;49.784;9.934;2023-02-28T07:32:47;-0.40;1.00
15450;DHT22;7826;49.784;9.934;2023-02-28T07:35:14;-0.30;1.00
15450;DHT22;7826;49.784;9.934;2023-02-28T07:37:44;-0.20;1.00
15450;DHT22;7826;49.784;9.934;2023-02-28T07:40:11;-0.20;1.00
15450;DHT22;7826;49.784;9.934;2023-02-28T07:42:39;-0.10;1.00
15450;DHT22;7826;49.784;9.934;2023-02-28T07:45:07;-0.20;1.00
15450;DHT22;7826;49.784;9.934;2023-02-28T07:47:34;-0.20;1.00
15450;DHT22;7826;49.784;9.934;2023-02-28T07:50:01;0.00;1.00
15450;DHT22;7826;49.784;9.934;2023-02-28T07:52:27;0.30;1.00
15450;DHT22;7826;49.784;9.934;2023-02-28T07:54:54;0.10;1.00
15450;DHT22;7826;49.784;9.934;2023-02-28T07:57:21;0.30;1.00
15450;DHT22;7826;49.784;9.934;2023-02-28T07:59:47;0.50;1.00
15450;DHT22;7826;49.784;9.934;2023-02-28T08:02:18;0.60;1.00
15450;DHT22;7826;49.784;9.934;2023-02-28T08:04:45;0.80;1.00
15450;DHT22;7826;49.784;9.934;2023-02-28T08:07:15;1.10;1.00
15450;DHT22;7826;49.784;9.934;2023-02-28T08:09:44;1.40;1.00
15450;DHT22;7826;49.784;9.934;2023-02-28T08:12:11;1.60;1.00
15450;DHT22;7826;49.784;9.934;2023-02-28T08:14:38;1.70;1.00
15450;DHT22;7826;49.784;9.934;2023-02-28T08:17:05;1.80;1.00
15450;DHT22;7826;49.784;9.934;2023-02-28T08:19:32;1.80;1.00
15450;DHT22;7826;49.784;9.934;2023-02-28T08:21:58;2.00;1.00
15450;DHT22;7826;49.784;9.934;2023-02-28T08:24:25;2.10;1.00
15450;DHT22;7826;49.784;9.934;2023-02-28T08:26:51;2.60;1.00
15450;DHT22;7826;49.784;9.934;2023-02-28T08:29:17;2.60;1.00
15450;DHT22;7826;49.784;9.934;2023-02-28T08:31:44;3.00;1.00
15450;DHT22;7826;49.784;9.934;2023-02-28T08:34:15;3.80;1.00
15450;DHT22;7826;49.784;9.934;2023-02-28T08:36:42;4.60;1.00
15450;DHT22;7826;49.784;9.934;2023-02-28T08:39:12;4.50;1.00
15450;DHT22;7826;49.784;9.934;2023-02-28T08:41:39;5.70;1.00
15450;DHT22;7826;49.784;9.934;2023-02-28T08:44:05;5.60;1.00
15450;DHT22;7826;49.784;9.934;2023-02-28T08:46:32;6.10;1.00
15450;DHT22;7826;49.784;9.934;2023-02-28T08:48:58;5.90;1.00
15450;DHT22;7826;49.784;9.934;2023-02-28T08:51:26;6.40;1.00
15450;DHT22;7826;49.784;9.934;2023-02-28T08:53:59;6.60;1.00
15450;DHT22;7826;49.784;9.934;2023-02-28T08:56:27;6.50;1.00
15450;DHT22;7826;49.784;9.934;2023-02-28T08:58:56;6.60;1.00
15450;DHT22;7826;49.784;9.934;2023-02-28T09:01:25;7.30;1.00
15450;DHT22;7826;49.784;9.934;2023-02-28T09:03:54;7.20;1.00
15450;DHT22;7826;49.784;9.934;2023-02-28T09:06:24;6.90;1.00
15450;DHT22;7826;49.784;9.934;2023-02-28T09:08:51;6.10;1.00
15450;DHT22;7826;49.784;9.934;2023-02-28T09:11:18;6.30;1.00
15450;DHT22;7826;49.784;9.934;2023-02-28T09:13:46;7.10;1.00
15450;DHT22;7826;49.784;9.934;2023-02-28T09:16:14;7.40;1.00
15450;DHT22;7826;49.784;9.934;2023-02-28T09:18:42;7.10;1.00
15450;DHT22;7826;49.784;9.934;2023-02-28T09:21:10;7.40;1.00
15450;DHT22;7826;49.784;9.934;2023-02-28T09:23:40;7.20;1.00
15450;DHT22;7826;49.784;9.934;2023-02-28T09:26:07;6.80;1.00
15450;DHT22;7826;49.784;9.934;2023-02-28T09:28:34;7.20;1.00
15450;DHT22;7826;49.784;9.934;2023-02-28T09:31:00;7.00;1.00
15450;DHT22;7826;49.784;9.934;2023-02-28T09:33:27;6.40;1.00
15450;DHT22;7826;49.784;9.934;2023-02-28T09:35:59;6.50;1.00
15450;DHT22;7826;49.784;9.934;2023-02-28T09:38:27;6.00;1.00
15450;DHT22;7826;49.784;9.934;2023-02-28T09:41:02;5.50;1.00
15450;DHT22;7826;49.784;9.934;2023-02-28T09:43:37;5.90;1.00
15450;DHT22;7826;49.784;9.934;2023-02-28T09:46:18;6.10;1.00
15450;DHT22;7826;49.784;9.934;2023-02-28T09:48:51;5.80;1.00
15450;DHT22;7826;49.784;9.934;2023-02-28T09:54:01;5.20;1.00
15450;DHT22;7826;49.784;9.934;2023-02-28T09:56:33;5.60;1.00
15450;DHT22;7826;49.784;9.934;2023-02-28T10:02:13;4.90;1.00
15450;DHT22;7826;49.784;9.934;2023-02-28T10:04:51;4.70;1.00
15450;DHT22;7826;49.784;9.934;2023-02-28T10:07:46;4.30;1.00
15450;DHT22;7826;49.784;9.934;2023-02-28T10:10:36;4.10;1.00
15450;DHT22;7826;49.784;9.934;2023-02-28T10:13:13;3.60;1.00
15450;DHT22;7826;49.784;9.934;2023-02-28T10:15:42;3.70;1.00
15450;DHT22;7826;49.784;9.934;2023-02-28T10:18:13;3.80;1.00
15450;DHT22;7826;49.784;9.934;2023-02-28T10:20:42;3.50;1.00
15450;DHT22;7826;49.784;9.934;2023-02-28T10:25:37;3.60;1.00
15450;DHT22;7826;49.784;9.934;2023-02-28T10:28:12;3.60;1.00
15450;DHT22;7826;49.784;9.934;2023-02-28T10:30:45;3.60;1.00
15450;DHT22;7826;49.784;9.934;2023-02-28T10:33:33;3.60;1.00
15450;DHT22;7826;49.784;9.934;2023-02-28T10:36:04;3.60;1.00
15450;DHT22;7826;49.784;9.934;2023-02-28T10:38:35;3.70;1.00
15450;DHT22;7826;49.784;9.934;2023-02-28T10:41:14;3.60;1.00
15450;DHT22;7826;49.784;9.934;2023-02-28T10:43:42;3.50;1.00
15450;DHT22;7826;49.784;9.934;2023-02-28T10:46:11;3.50;1.00
15450;DHT22;7826;49.784;9.934;2023-02-28T10:48:44;3.50;1.00
15450;DHT22;7826;49.784;9.934;2023-02-28T10:51:16;3.50;1.00
15450;DHT22;7826;49.784;9.934;2023-02-28T10:53:48;3.40;1.00
15450;DHT22;7826;49.784;9.934;2023-02-28T10:56:18;3.50;1.00
15450;DHT22;7826;49.784;9.934;2023-02-28T10:59:05;3.30;1.00
15450;DHT22;7826;49.784;9.934;2023-02-28T11:01:48;3.40;1.00
15450;DHT22;7826;49.784;9.934;2023-02-28T11:04:32;3.50;1.00
15450;DHT22;7826;49.784;9.934;2023-02-28T11:07:01;3.50;1.00
15450;DHT22;7826;49.784;9.934;2023-02-28T11:09:35;3.70;1.00
15450;DHT22;7826;49.784;9.934;2023-02-28T11:15:04;3.40;1.00
15450;DHT22;7826;49.784;9.934;2023-02-28T11:17:32;3.20;1.00
15450;DHT22;7826;49.784;9.934;2023-02-28T11:20:03;3.40;1.00
15450;DHT22;7826;49.784;9.934;2023-02-28T11:22:32;3.50;1.00
15450;DHT22;7826;49.784;9.934;2023-02-28T11:25:15;3.50;1.00
15450;DHT22;7826;49.784;9.934;2023-02-28T11:27:50;3.40;1.00
15450;DHT22;7826;49.784;9.934;2023-02-28T11:30:33;3.40;1.00
15450;DHT22;7826;49.784;9.934;2023-02-28T11:33:01;3.40;1.00
15450;DHT22;7826;49.784;9.934;2023-02-28T11:35:44;3.40;1.00
15450;DHT22;7826;49.784;9.934;2023-02-28T11:38:12;3.50;1.00
15450;DHT22;7826;49.784;9.934;2023-02-28T11:49:00;3.80;1.00
15450;DHT22;7826;49.784;9.934;2023-02-28T11:51:35;3.90;1.00
15450;DHT22;7826;49.784;9.934;2023-02-28T11:56:52;3.70;1.00
15450;DHT22;7826;49.784;9.934;2023-02-28T12:02:59;3.70;1.00
15450;DHT22;7826;49.784;9.934;2023-02-28T12:05:35;3.70;1.00
15450;DHT22;7826;49.784;9.934;2023-02-28T12:08:41;3.80;1.00
15450;DHT22;7826;49.784;9.934;2023-02-28T12:16:54;4.00;1.00
15450;DHT22;7826;49.784;9.934;2023-02-28T12:19:41;3.60;1.00
15450;DHT22;7826;49.784;9.934;2023-02-28T12:22:29;3.60;1.00
15450;DHT22;7826;49.784;9.934;2023-02-28T12:25:22;3.60;1.00
15450;DHT22;7826;49.784;9.934;2023-02-28T12:27:51;3.60;1.00
15450;DHT22;7826;49.784;9.934;2023-02-28T12:30:21;3.70;1.00
15450;DHT22;7826;49.784;9.934;2023-02-28T12:33:04;3.60;1.00
15450;DHT22;7826;49.784;9.934;2023-02-28T12:35:37;3.50;1.00
15450;DHT22;7826;49.784;9.934;2023-02-28T12:38:29;3.60;1.00
15450;DHT22;7826;49.784;9.934;2023-02-28T12:41:05;3.50;1.00
15450;DHT22;7826;49.784;9.934;2023-02-28T12:43:37;3.50;1.00
15450;DHT22;7826;49.784;9.934;2023-02-28T12:48:42;3.60;1.00
15450;DHT22;7826;49.784;9.934;2023-02-28T12:51:09;3.60;1.00
15450;DHT22;7826;49.784;9.934;2023-02-28T12:53:57;3.70;1.00
15450;DHT22;7826;49.784;9.934;2023-02-28T12:59:13;3.90;1.00
15450;DHT22;7826;49.784;9.934;2023-02-28T13:10:08;4.00;1.00
15450;DHT22;7826;49.784;9.934;2023-02-28T13:12:35;4.10;1.00
15450;DHT22;7826;49.784;9.934;2023-02-28T13:15:13;4.50;1.00
15450;DHT22;7826;49.784;9.934;2023-02-28T13:17:48;4.20;1.00
15450;DHT22;7826;49.784;9.934;2023-02-28T13:20:19;4.30;1.00
15450;DHT22;7826;49.784;9.934;2023-02-28T13:22:48;4.30;1.00
15450;DHT22;7826;49.784;9.934;2023-02-28T13:28:10;4.20;1.00
15450;DHT22;7826;49.784;9.934;2023-02-28T13:33:35;4.40;1.00
15450;DHT22;7826;49.784;9.934;2023-02-28T13:41:41;4.30;1.00
15450;DHT22;7826;49.784;9.934;2023-02-28T13:49:27;4.10;1.00
15450;DHT22;7826;49.784;9.934;2023-02-28T13:58:20;4.40;1.00
15450;DHT22;7826;49.784;9.934;2023-02-28T14:09:03;4.30;1.00
15450;DHT22;7826;49.784;9.934;2023-02-28T14:11:37;4.40;1.00
15450;DHT22;7826;49.784;9.934;2023-02-28T14:14:07;4.30;1.00
15450;DHT22;7826;49.784;9.934;2023-02-28T14:19:23;4.20;1.00
15450;DHT22;7826;49.784;9.934;2023-02-28T14:22:04;4.30;1.00
15450;DHT22;7826;49.784;9.934;2023-02-28T14:27:50;4.40;1.00
15450;DHT22;7826;49.784;9.934;2023-02-28T14:30:51;4.40;1.00
15450;DHT22;7826;49.784;9.934;2023-02-28T14:36:25;4.50;1.00
15450;DHT22;7826;49.784;9.934;2023-02-28T14:38:57;4.50;1.00
15450;DHT22;7826;49.784;9.934;2023-02-28T14:41:30;4.60;1.00
15450;DHT22;7826;49.784;9.934;2023-02-28T14:43:59;4.70;1.00
15450;DHT22;7826;49.784;9.934;2023-02-28T14:46:32;4.60;1.00
15450;DHT22;7826;49.784;9.934;2023-02-28T14:49:01;4.60;1.00
15450;DHT22;7826;49.784;9.934;2023-02-28T14:51:29;4.60;1.00
15450;DHT22;7826;49.784;9.934;2023-02-28T14:53:58;4.60;1.00
15450;DHT22;7826;49.784;9.934;2023-02-28T14:56:37;4.90;1.00
15450;DHT22;7826;49.784;9.934;2023-02-28T14:59:06;4.70;1.00
15450;DHT22;7826;49.784;9.934;2023-02-28T15:01:48;4.70;1.00
15450;DHT22;7826;49.784;9.934;2023-02-28T15:04:25;4.70;1.00
15450;DHT22;7826;49.784;9.934;2023-02-28T15:07:13;4.70;1.00
15450;DHT22;7826;49.784;9.934;2023-02-28T15:09:40;4.70;1.00
15450;DHT22;7826;49.784;9.934;2023-02-28T15:12:15;4.70;1.00
15450;DHT22;7826;49.784;9.934;2023-02-28T15:14:43;4.40;1.00
15450;DHT22;7826;49.784;9.934;2023-02-28T15:17:21;4.50;1.00
15450;DHT22;7826;49.784;9.934;2023-02-28T15:19:51;4.50;1.00
15450;DHT22;7826;49.784;9.934;2023-02-28T15:22:24;4.50;1.00
15450;DHT22;7826;49.784;9.934;2023-02-28T15:24:54;4.50;1.00
15450;DHT22;7826;49.784;9.934;2023-02-28T15:27:23;4.50;1.00
15450;DHT22;7826;49.784;9.934;2023-02-28T15:29:56;4.50;1.00
15450;DHT22;7826;49.784;9.934;2023-02-28T15:32:37;4.50;1.00
15450;DHT22;7826;49.784;9.934;2023-02-28T15:35:28;4.50;1.00
15450;DHT22;7826;49.784;9.934;2023-02-28T15:37:55;4.40;1.00
15450;DHT22;7826;49.784;9.934;2023-02-28T15:40:36;4.40;1.00
15450;DHT22;7826;49.784;9.934;2023-02-28T15:43:16;4.30;1.00
15450;DHT22;7826;49.784;9.934;2023-02-28T15:45:53;4.30;1.00
15450;DHT22;7826;49.784;9.934;2023-02-28T15:48:28;4.30;1.00
15450;DHT22;7826;49.784;9.934;2023-02-28T15:51:00;4.20;1.00
15450;DHT22;7826;49.784;9.934;2023-02-28T15:56:26;4.20;1.00
15450;DHT22;7826;49.784;9.934;2023-02-28T15:58:55;4.20;1.00
15450;DHT22;7826;49.784;9.934;2023-02-28T16:01:28;4.20;1.00
15450;DHT22;7826;49.784;9.934;2023-02-28T16:04:01;4.10;1.00
15450;DHT22;7826;49.784;9.934;2023-02-28T16:06:36;4.10;1.00
15450;DHT22;7826;49.784;9.934;2023-02-28T16:09:04;4.00;1.00
15450;DHT22;7826;49.784;9.934;2023-02-28T16:11:33;4.10;1.00
15450;DHT22;7826;49.784;9.934;2023-02-28T16:14:00;4.00;1.00
15450;DHT22;7826;49.784;9.934;2023-02-28T16:16:26;3.90;1.00
15450;DHT22;7826;49.784;9.934;2023-02-28T16:18:53;3.90;1.00
15450;DHT22;7826;49.784;9.934;2023-02-28T16:21:20;3.80;1.00
15450;DHT22;7826;49.784;9.934;2023-02-28T16:23:46;3.80;1.00
15450;DHT22;7826;49.784;9.934;2023-02-28T16:26:23;3.70;1.00
15450;DHT22;7826;49.784;9.934;2023-02-28T16:28:51;3.60;1.00
15450;DHT22;7826;49.784;9.934;2023-02-28T16:31:17;3.50;1.00
15450;DHT22;7826;49.784;9.934;2023-02-28T16:33:44;3.50;1.00
15450;DHT22;7826;49.784;9.934;2023-02-28T16:36:21;3.50;1.00
15450;DHT22;7826;49.784;9.934;2023-02-28T16:38:47;3.40;1.00
15450;DHT22;7826;49.784;9.934;2023-02-28T16:41:18;3.40;1.00
15450;DHT22;7826;49.784;9.934;2023-02-28T16:43:47;3.40;1.00
15450;DHT22;7826;49.784;9.934;2023-02-28T16:46:15;3.40;1.00
15450;DHT22;7826;49.784;9.934;2023-02-28T16:48:44;3.30;1.00
15450;DHT22;7826;49.784;9.934;2023-02-28T16:51:14;3.30;1.00
15450;DHT22;7826;49.784;9.934;2023-02-28T16:53:41;3.20;1.00
15450;DHT22;7826;49.784;9.934;2023-02-28T16:56:34;3.10;1.00
15450;DHT22;7826;49.784;9.934;2023-02-28T16:59:02;3.10;1.00
15450;DHT22;7826;49.784;9.934;2023-02-28T17:01:28;3.00;1.00
15450;DHT22;7826;49.784;9.934;2023-02-28T17:03:55;3.00;1.00
15450;DHT22;7826;49.784;9.934;2023-02-28T17:06:26;3.00;1.00
15450;DHT22;7826;49.784;9.934;2023-02-28T17:08:57;2.90;1.00
15450;DHT22;7826;49.784;9.934;2023-02-28T17:11:24;2.80;1.00
15450;DHT22;7826;49.784;9.934;2023-02-28T17:13:51;2.80;1.00
15450;DHT22;7826;49.784;9.934;2023-02-28T17:16:31;2.70;1.00
15450;DHT22;7826;49.784;9.934;2023-02-28T17:19:00;2.60;1.00
15450;DHT22;7826;49.784;9.934;2023-02-28T17:21:26;2.60;1.00
15450;DHT22;7826;49.784;9.934;2023-02-28T17:23:53;2.70;1.00
15450;DHT22;7826;49.784;9.934;2023-02-28T17:26:21;2.60;1.00
15450;DHT22;7826;49.784;9.934;2023-02-28T17:28:48;2.60;1.00
15450;DHT22;7826;49.784;9.934;2023-02-28T17:31:15;2.50;1.00
15450;DHT22;7826;49.784;9.934;2023-02-28T17:33:41;2.50;1.00
15450;DHT22;7826;49.784;9.934;2023-02-28T17:36:16;2.40;1.00
15450;DHT22;7826;49.784;9.934;2023-02-28T17:38:44;2.40;1.00
15450;DHT22;7826;49.784;9.934;2023-02-28T17:41:11;2.40;1.00
15450;DHT22;7826;49.784;9.934;2023-02-28T17:43:37;2.30;1.00
15450;DHT22;7826;49.784;9.934;2023-02-28T17:46:03;2.30;1.00
15450;DHT22;7826;49.784;9.934;2023-02-28T17:48:32;2.20;1.00
15450;DHT22;7826;49.784;9.934;2023-02-28T17:50:58;2.20;1.00
15450;DHT22;7826;49.784;9.934;2023-02-28T17:53:25;2.20;1.00
15450;DHT22;7826;49.784;9.934;2023-02-28T17:55:53;2.10;1.00
15450;DHT22;7826;49.784;9.934;2023-02-28T17:58:19;2.10;1.00
15450;DHT22;7826;49.784;9.934;2023-02-28T18:00:47;2.00;1.00
15450;DHT22;7826;49.784;9.934;2023-02-28T18:03:20;2.00;1.00
15450;DHT22;7826;49.784;9.934;2023-02-28T18:05:47;1.90;1.00
15450;DHT22;7826;49.784;9.934;2023-02-28T18:08:16;1.80;1.00
15450;DHT22;7826;49.784;9.934;2023-02-28T18:10:42;1.80;1.00
15450;DHT22;7826;49.784;9.934;2023-02-28T18:13:09;1.80;1.00
15450;DHT22;7826;49.784;9.934;2023-02-28T18:15:39;1.80;1.00
15450;DHT22;7826;49.784;9.934;2023-02-28T18:18:05;1.80;1.00
15450;DHT22;7826;49.784;9.934;2023-02-28T18:20:34;1.70;1.00
15450;DHT22;7826;49.784;9.934;2023-02-28T18:23:03;1.70;1.00
15450;DHT22;7826;49.784;9.934;2023-02-28T18:25:29;1.70;1.00
15450;DHT22;7826;49.784;9.934;2023-02-28T18:27:55;1.60;1.00
15450;DHT22;7826;49.784;9.934;2023-02-28T18:30:31;1.60;1.00
15450;DHT22;7826;49.784;9.934;2023-02-28T18:32:59;1.50;1.00
15450;DHT22;7826;49.784;9.934;2023-02-28T18:35:26;1.70;1.00